Data for 09/04/2010

Time Sea-Level Adjusted Pressure Absolute Pressure Temperature Relative Humidity Dew Point   
(mb) (inHg) (mb) (inHg) (C) (F) (%) (C) (F)
00:05 1021 30.15 850 25.1 15 59.1 45 3.4 38.1
00:10 1021 30.15 850 25.1 15 58.9 44 2.9 37.2
00:15 1021 30.15 850 25.1 15.1 59.3 46 3.5 38.4
00:20 1021 30.15 850 25.1 14.7 58.4 49 4.2 39.5
00:25 1021 30.15 850 25.1 14.4 57.9 47 3.4 38.2
00:30 1021 30.15 850 25.1 14.3 57.7 48 3.4 38.2
00:35 1021 30.15 850 25.1 13.8 56.8 54 4.7 40.4
00:40 1021 30.15 850 25.1 13.6 56.5 53 4.2 39.6
00:45 1021 30.15 850 25.1 13.2 55.8 55 4.4 39.9
00:50 1020 30.12 850 25.1 12.6 54.7 58 4.5 40.1
00:55 1020 30.12 850 25.1 12.5 54.4 56 4.1 39.3
01:00 1020 30.12 850 25.1 12.4 54.3 57 4.1 39.3
01:05 1020 30.12 850 25.1 12.6 54.7 55 3.8 38.9
01:10 1020 30.12 850 25.1 12.8 55 54 3.8 38.8
01:15 1020 30.12 850 25.1 13.3 56 51 3.4 38.1
01:20 1020 30.12 850 25.1 13.4 56.1 52 3.8 38.8
01:25 1020 30.12 849 25.07 13.5 56.4 49 3.2 37.8
01:30 1020 30.12 849 25.07 13.5 56.4 51 3.8 38.8
01:35 1020 30.12 849 25.07 13 55.3 54 3.9 39
01:40 1020 30.12 849 25.07 12.5 54.5 56 4 39.2
01:45 1020 30.12 849 25.07 12.3 54.1 56 3.7 38.7
01:50 1020 30.12 849 25.07 12.5 54.4 54 3.4 38.1
01:55 1020 30.12 849 25.07 12.7 54.9 53 3.4 38.1
02:00 1020 30.12 849 25.07 12.8 55 54 3.7 38.6
02:05 1020 30.12 849 25.07 12.8 55 51 3 37.4
02:10 1020 30.12 849 25.07 13 55.4 52 3.4 38.1
02:15 1020 30.12 849 25.07 13.2 55.7 51 3.3 37.9
02:20 1020 30.12 849 25.07 13 55.4 53 3.7 38.6
02:25 1020 30.12 849 25.07 12.6 54.6 53 3.4 38.1
02:30 1020 30.12 849 25.07 12.6 54.7 53 3.3 37.9
02:35 1020 30.12 849 25.07 12.7 54.8 52 3.1 37.7
02:40 1020 30.12 849 25.07 12.8 55 53 3.4 38.2
02:45 1019 30.09 849 25.07 12.7 54.8 52 3.2 37.8
02:50 1019 30.09 849 25.07 12.9 55.1 52 3.3 37.9
02:55 1019 30.09 849 25.07 12.8 55.1 52 3.3 38
03:00 1019 30.09 849 25.07 12.8 55.1 51 3 37.4
03:05 1019 30.09 848 25.04 12.9 55.3 50 2.8 37.1
03:10 1019 30.09 848 25.04 13.1 55.6 50 2.9 37.2
03:15 1019 30.09 848 25.04 13.3 56 49 3 37.5
03:20 1019 30.09 848 25.04 13.4 56.1 48 2.8 37.1
03:25 1019 30.09 848 25.04 13.5 56.2 49 3 37.4
03:30 1019 30.09 848 25.04 13.5 56.2 48 2.7 36.9
03:35 1019 30.09 848 25.04 13.6 56.5 48 2.8 37.1
03:40 1019 30.09 848 25.04 13.6 56.5 47 2.7 36.8
03:45 1019 30.09 848 25.04 13.7 56.7 46 2.5 36.5
03:50 1019 30.09 848 25.04 13.8 56.8 47 2.7 36.8
03:55 1019 30.09 848 25.04 13.7 56.7 47 2.7 36.8
04:00 1019 30.09 848 25.04 13.7 56.7 46 2.4 36.3
04:05 1019 30.09 848 25.04 13.9 57 45 2.3 36.2
04:10 1019 30.09 848 25.04 14.1 57.5 44 2.2 36
04:15 1019 30.09 848 25.04 14.2 57.6 44 2.3 36.2
04:20 1019 30.09 848 25.04 14.2 57.5 43 1.8 35.2
04:25 1019 30.09 848 25.04 14.3 57.7 42 1.5 34.8
04:30 1019 30.09 848 25.04 14.8 58.6 39 1.2 34.1
04:35 1019 30.09 848 25.04 14.8 58.7 43 2.5 36.5
04:40 1019 30.09 848 25.04 14.1 57.3 43 1.6 34.9
04:45 1019 30.09 848 25.04 14.2 57.5 42 1.7 35
04:50 1019 30.09 848 25.04 14.4 57.9 43 2 35.6
04:55 1019 30.09 848 25.04 14.1 57.3 44 2 35.6
05:00 1019 30.09 848 25.04 14.1 57.3 42 1.3 34.4
05:05 1019 30.09 848 25.04 14.3 57.7 44 2.4 36.3
05:10 1019 30.09 848 25.04 13.8 56.8 45 2.2 36
05:15 1019 30.09 848 25.04 13.4 56.2 46 2.2 35.9
05:20 1018 30.06 848 25.04 13.2 55.8 46 1.9 35.4
05:25 1018 30.06 848 25.04 13.1 55.7 48 2.3 36.2
05:30 1018 30.06 848 25.04 12.8 55 48 2 35.6
05:35 1018 30.06 848 25.04 13.4 56 46 2 35.7
05:40 1019 30.09 848 25.04 13.3 55.9 47 2.3 36.2
05:45 1019 30.09 848 25.04 13.2 55.8 47 2.3 36.1
05:50 1019 30.09 848 25.04 13.2 55.7 46 2 35.5
05:55 1019 30.09 848 25.04 13.5 56.2 46 2.2 35.9
06:00 1019 30.09 848 25.04 13.3 56 47 2.4 36.3
06:05 1019 30.09 848 25.04 13 55.3 48 2.4 36.4
06:10 1019 30.09 848 25.04 12.7 54.9 49 2.3 36.1
06:15 1019 30.09 848 25.04 12.5 54.5 50 2.4 36.3
06:20 1019 30.09 848 25.04 12.5 54.5 48 1.9 35.4
06:25 1018 30.06 848 25.04 12.9 55.2 48 2.2 36
06:30 1018 30.06 848 25.04 12.9 55.2 47 2 35.6
06:35 1018 30.06 848 25.04 12.9 55.2 48 2.2 35.9
06:40 1019 30.09 848 25.04 12.9 55.1 48 2.3 36.1
06:45 1019 30.09 848 25.04 12.4 54.4 51 2.7 36.9
06:50 1019 30.09 848 25.04 11.8 53.3 53 2.7 36.9
06:55 1019 30.09 848 25.04 11.6 52.9 54 2.6 36.6
07:00 1019 30.09 848 25.04 11.5 52.6 54 2.6 36.7
07:05 1019 30.09 848 25.04 11.3 52.3 54 2.4 36.4
07:10 1019 30.09 848 25.04 11.5 52.7 54 2.6 36.6
07:15 1019 30.09 848 25.04 11.6 52.9 51 2 35.6
07:20 1019 30.09 848 25.04 12.3 54.2 49 2 35.5
07:25 1018 30.06 848 25.04 12.5 54.6 49 2.3 36.1
07:30 1018 30.06 848 25.04 12.5 54.4 51 2.7 36.8
07:35 1019 30.09 848 25.04 12.6 54.7 48 2 35.5
07:40 1018 30.06 848 25.04 13.2 55.7 48 2.4 36.3
07:45 1018 30.06 848 25.04 13.4 56.2 49 3 37.4
07:50 1018 30.06 848 25.04 13.5 56.2 46 2.2 36
07:55 1018 30.06 848 25.04 13.9 57 46 2.7 36.9
08:00 1018 30.06 848 25.04 13.8 56.8 47 2.8 37
08:05 1018 30.06 848 25.04 13.9 56.9 47 2.9 37.3
08:10 1018 30.06 848 25.04 13.9 57 48 3.1 37.6
08:15 1018 30.06 848 25.04 14.2 57.6 49 3.7 38.7
08:20 1018 30.06 847 25.01 14.2 57.5 49 3.8 38.9
08:25 1018 30.06 847 25.01 14.2 57.5 49 3.7 38.7
08:30 1018 30.06 847 25.01 14.2 57.5 49 3.8 38.9
08:35 1018 30.06 847 25.01 14.4 57.9 50 4.1 39.3
08:40 1018 30.06 847 25.01 14.7 58.5 49 4.3 39.7
08:45 1018 30.06 847 25.01 15.3 59.5 45 3.4 38.2
08:50 1018 30.06 847 25.01 15.8 60.4 44 3.8 38.8
08:55 1018 30.06 847 25.01 16 60.8 42 3.2 37.8
09:00 1018 30.06 847 25.01 16.5 61.7 41 3.3 37.9
09:05 1018 30.06 847 25.01 16.7 62.1 45 4.9 40.8
09:10 1018 30.06 847 25.01 17.2 62.9 46 5.5 41.9
09:15 1018 30.06 847 25.01 17.4 63.3 39 3.5 38.4
09:20 1018 30.06 847 25.01 17.6 63.8 41 4.3 39.8
09:25 1018 30.06 847 25.01 18.1 64.5 39 4.2 39.5
09:30 1018 30.06 847 25.01 18.6 65.5 37 3.9 39
09:35 1018 30.06 847 25.01 19.3 66.8 36 4.2 39.6
09:40 1018 30.06 847 25.01 19.9 67.9 36 4.4 39.9
09:45 1018 30.06 847 25.01 20.3 68.6 34 4.1 39.3
09:50 1018 30.06 847 25.01 20.5 68.9 35 4.6 40.3
09:55 1017 30.03 847 25.01 20.5 68.8 36 5 41
10:00 1017 30.03 847 25.01 20.3 68.6 37 5.1 41.2
10:05 1017 30.03 846 24.98 19.9 67.8 38 5.2 41.3
10:10 1017 30.03 846 24.98 19.9 67.7 36 4.7 40.5
10:15 1017 30.03 846 24.98 19.8 67.7 36 4.4 40
10:20 1017 30.03 846 24.98 20 67.9 33 3.4 38.1
10:25 1017 30.03 846 24.98 20.4 68.7 34 4 39.2
10:30 1017 30.03 846 24.98 20.7 69.3 33 3.9 38.9
10:35 1017 30.03 846 24.98 20.5 68.9 33 4 39.2
10:40 1017 30.03 846 24.98 20.5 68.9 33 3.9 39.1
10:45 1017 30.03 846 24.98 20.8 69.4 34 4.4 40
10:50 1017 30.03 846 24.98 21.8 71.2 32 4.4 39.9
10:55 1017 30.03 846 24.98 23.1 73.5 30 4.6 40.2
11:00 1017 30.03 846 24.98 23.5 74.2 28 4.2 39.6
11:05 1017 30.03 846 24.98 23.9 75 28 4.6 40.3
11:10 1017 30.03 846 24.98 24 75.2 28 4.5 40
11:15 1016 30 846 24.98 24.1 75.4 29 5.3 41.6
11:20 1016 30 846 24.98 23.6 74.6 28 4.5 40.1
11:25 1016 30 846 24.98 23.7 74.7 29 4.8 40.7
11:30 1016 30 846 24.98 24 75.1 28 4.3 39.8
11:35 1016 30 845 24.95 23.7 74.7 31 5.9 42.5
11:40 1016 30 845 24.95 23.5 74.3 32 6 42.7
11:45 1016 30 845 24.95 24.2 75.5 30 6 42.7
11:50 1016 30 845 24.95 23.7 74.6 32 6.2 43.1
11:55 1016 30 845 24.95 23.2 73.7 30 4.9 40.8
12:00 1016 30 845 24.95 24.7 76.4 28 5.4 41.8
12:05 1016 30 845 24.95 24.7 76.4 28 5.3 41.6
12:10 1016 30 845 24.95 24 75.1 30 5.7 42.3
12:15 1015 29.97 845 24.95 24 75.2 29 5.3 41.5
12:20 1015 29.97 845 24.95 24 75.2 29 5 41.1
12:25 1015 29.97 844 24.92 23.7 74.6 30 5.1 41.3
12:30 1015 29.97 844 24.92 23.7 74.7 30 5.3 41.6
12:35 1015 29.97 844 24.92 24.6 76.3 29 5.4 41.7
12:40 1015 29.97 844 24.92 25.2 77.4 26 4.8 40.6
12:45 1015 29.97 844 24.92 25.3 77.6 27 5.3 41.6
12:50 1015 29.97 844 24.92 25.5 77.8 27 5.3 41.6
12:55 1015 29.97 844 24.92 25.3 77.6 29 6.4 43.6
13:00 1015 29.97 844 24.92 25.5 77.9 27 5.5 41.9
13:05 1015 29.97 844 24.92 25.7 78.2 27 5.8 42.4
13:10 1014 29.94 844 24.92 25.3 77.6 27 5.4 41.7
13:15 1014 29.94 844 24.92 25 76.9 27 5.1 41.2
13:20 1014 29.94 844 24.92 25.3 77.6 26 4.8 40.6
13:25 1014 29.94 844 24.92 25.7 78.3 24 4.2 39.5
13:30 1014 29.94 843 24.89 25.9 78.6 25 4.5 40.1
13:35 1014 29.94 843 24.89 25.5 78 26 4.7 40.5
13:40 1014 29.94 843 24.89 25.1 77.1 26 4.5 40
13:45 1014 29.94 843 24.89 26.1 78.9 26 5.2 41.4
13:50 1014 29.94 843 24.89 25.8 78.5 27 5.5 41.9
13:55 1014 29.94 843 24.89 25.5 78 27 5.7 42.2
14:00 1014 29.94 843 24.89 24.7 76.4 29 5.5 41.8
14:05 1014 29.94 843 24.89 24.5 76 29 5.6 42.1
14:10 1014 29.94 843 24.89 24.9 76.7 30 6.2 43.1
14:15 1014 29.94 843 24.89 24.3 75.8 30 6 42.8
14:20 1014 29.94 843 24.89 24.3 75.7 31 6.5 43.6
14:25 1014 29.94 843 24.89 24 75.3 32 6.6 43.9
14:30 1013 29.91 842 24.86 23.8 74.8 23 1.7 35
14:35 1013 29.91 842 24.86 24.3 75.8 30 5.7 42.3
14:40 1014 29.94 843 24.89 24.4 75.9 28 5 40.9
14:45 1013 29.91 843 24.89 25.4 77.6 25 4.4 39.9
14:50 1013 29.91 842 24.86 25.5 77.8 30 7 44.6
14:55 1013 29.91 842 24.86 25.1 77.2 32 7.3 45.2
15:00 1013 29.91 842 24.86 24.2 75.5 34 7.6 45.8
15:05 1013 29.91 842 24.86 23.8 74.9 35 7.5 45.5
15:10 1013 29.91 842 24.86 23.8 74.9 34 7.2 45
15:15 1013 29.91 842 24.86 24.5 76.1 16 -3.1 26.5
15:20 1012 29.88 842 24.86 26.2 79.1 15 -1.9 28.6
15:25 1012 29.88 842 24.86 26.8 80.3 16 -1.2 29.8
15:30 1012 29.88 842 24.86 26.9 80.5 15 -1.5 29.3
15:35 1013 29.91 842 24.86 26.4 79.5 19 0.9 33.5
15:40 1013 29.91 842 24.86 26.1 79 21 2.1 35.9
15:45 1013 29.91 842 24.86 26.3 79.4 23 3.6 38.4
15:50 1013 29.91 842 24.86 26.5 79.8 20 1.8 35.3
15:55 1013 29.91 842 24.86 27.2 80.9 17 0 32.1
16:00 1012 29.88 842 24.86 27.7 81.9 18 1.7 35.1
16:05 1012 29.88 842 24.86 27.6 81.6 19 2.3 36.2
16:10 1012 29.88 841 24.83 27.2 80.9 17 0.1 32.2
16:15 1012 29.88 841 24.83 27.1 80.8 18 1.1 34.1
16:20 1012 29.88 842 24.86 26.8 80.3 17 -0.1 31.8
16:25 1012 29.88 842 24.86 27 80.5 18 1.2 34.2
16:30 1012 29.88 841 24.83 26.2 79.2 21 2.1 35.8
16:35 1012 29.88 841 24.83 25.6 78.1 21 1.7 35.1
16:40 1012 29.88 841 24.83 25.1 77.2 23 2.8 37
16:45 1012 29.88 841 24.83 25 77 22 2.1 35.7
16:50 1012 29.88 841 24.83 24.8 76.6 23 2.6 36.7
16:55 1012 29.88 841 24.83 24.6 76.2 22 1.5 34.7
17:00 1012 29.88 841 24.83 24.8 76.6 22 1.8 35.2
17:05 1013 29.91 842 24.86 24.8 76.6 26 4 39.1
17:10 1013 29.91 842 24.86 23.8 74.9 29 4.8 40.7
17:15 1013 29.91 842 24.86 23 73.4 30 4.5 40.1
17:20 1013 29.91 843 24.89 22.7 72.8 31 4.8 40.6
17:25 1013 29.91 843 24.89 22.2 72 41 8.4 47.1
17:30 1013 29.91 843 24.89 20.4 68.8 47 8.8 47.9
17:35 1013 29.91 843 24.89 19.3 66.8 46 7.7 45.9
17:40 1013 29.91 843 24.89 19.4 66.9 46 7.8 46
17:45 1014 29.94 843 24.89 19.6 67.3 48 8.5 47.3
17:50 1014 29.94 843 24.89 19.8 67.6 47 8.4 47.2
17:55 1014 29.94 843 24.89 20 67.9 38 5.5 41.9
18:00 1014 29.94 843 24.89 20.2 68.4 39 6 42.8
18:05 1014 29.94 843 24.89 20.3 68.5 42 7.2 44.9
18:10 1014 29.94 844 24.92 20.4 68.7 44 7.8 46.1
18:15 1014 29.94 844 24.92 20.1 68.2 43 7.5 45.4
18:20 1014 29.94 843 24.89 20.3 68.6 38 5.8 42.5
18:25 1014 29.94 844 24.92 20.6 69.2 40 6.7 44
18:30 1014 29.94 844 24.92 20.2 68.4 44 7.7 45.8
18:35 1014 29.94 844 24.92 20 67.9 44 7.5 45.5
18:40 1014 29.94 843 24.89 19.7 67.4 48 8.5 47.3
18:45 1014 29.94 843 24.89 19.5 67.2 48 8.3 46.9
18:50 1014 29.94 843 24.89 19.1 66.4 48 7.9 46.1
18:55 1014 29.94 843 24.89 18.8 65.9 48 7.8 46
19:00 1014 29.94 843 24.89 18.9 65.9 49 7.9 46.2
19:05 1014 29.94 843 24.89 18.9 65.9 53 9.2 48.5
19:10 1014 29.94 843 24.89 18.4 65.1 53 8.8 47.9
19:15 1014 29.94 843 24.89 18.1 64.5 57 9.4 48.9
19:20 1014 29.94 843 24.89 17.6 63.7 59 9.5 49.2
19:25 1014 29.94 843 24.89 17.7 63.8 56 9 48.2
19:30 1014 29.94 843 24.89 17.5 63.4 60 9.8 49.6
19:35 1014 29.94 843 24.89 17.2 62.9 58 9 48.3
19:40 1014 29.94 843 24.89 17.1 62.9 59 9.3 48.7
19:45 1014 29.94 843 24.89 17.2 62.9 58 9 48.2
19:50 1013 29.91 843 24.89 16.9 62.4 56 8.2 46.8
19:55 1013 29.91 843 24.89 16.9 62.4 60 9.1 48.5
20:00 1013 29.91 843 24.89 16.4 61.6 58 8.1 46.6
20:05 1013 29.91 843 24.89 16.6 61.9 62 9.4 48.9
20:10 1013 29.91 843 24.89 16 60.9 66 9.9 49.7
20:15 1013 29.91 843 24.89 15.7 60.3 68 9.9 49.9
20:20 1013 29.91 843 24.89 15.6 60 64 8.8 47.8
20:25 1013 29.91 843 24.89 15.5 59.8 65 8.9 48
20:30 1013 29.91 843 24.89 15.5 59.9 62 8.4 47.1
20:35 1014 29.94 843 24.89 15.7 60.2 59 7.8 46
20:40 1013 29.91 843 24.89 16.1 60.9 59 8 46.5
20:45 1014 29.94 843 24.89 16 60.7 58 7.9 46.2
20:50 1013 29.91 843 24.89 15.9 60.6 60 8.2 46.7
20:55 1013 29.91 843 24.89 16 60.7 60 8.2 46.7
21:00 1014 29.94 843 24.89 16 60.8 61 8.6 47.4
21:05 1013 29.91 843 24.89 15.7 60.2 62 8.5 47.3
21:10 1013 29.91 843 24.89 15.1 59.1 64 8.3 46.9
21:15 1013 29.91 843 24.89 14.9 58.7 64 8.3 46.9
21:20 1014 29.94 843 24.89 14.6 58.3 67 8.6 47.5
21:25 1014 29.94 843 24.89 14.4 58 65 8 46.4
21:30 1014 29.94 843 24.89 14.2 57.6 65 7.7 45.8
21:35 1014 29.94 843 24.89 14.2 57.5 64 7.5 45.4
21:40 1014 29.94 843 24.89 14 57.1 65 7.6 45.7
21:45 1014 29.94 843 24.89 14 57.1 63 7 44.7
21:50 1014 29.94 843 24.89 14 57.3 61 6.6 43.9
21:55 1014 29.94 843 24.89 14.1 57.4 60 6.5 43.8
22:00 1014 29.94 843 24.89 14.3 57.7 61 6.9 44.4
22:05 1013 29.91 843 24.89 14.1 57.3 60 6.6 43.9
22:10 1013 29.91 843 24.89 14 57.1 61 6.7 44.1
22:15 1013 29.91 843 24.89 13.7 56.7 63 6.8 44.2
22:20 1013 29.91 843 24.89 13.6 56.4 62 6.5 43.7
22:25 1013 29.91 843 24.89 13.7 56.7 61 6.4 43.5
22:30 1013 29.91 843 24.89 13.7 56.7 61 6.3 43.4
22:35 1013 29.91 843 24.89 13.8 56.8 59 6.1 42.9
22:40 1013 29.91 843 24.89 14 57.2 60 6.3 43.3
22:45 1013 29.91 843 24.89 13.8 56.8 59 6 42.7
22:50 1013 29.91 843 24.89 13.8 56.8 59 5.9 42.7
22:55 1013 29.91 843 24.89 14 57.2 58 5.8 42.5
23:00 1013 29.91 843 24.89 14.1 57.4 57 5.8 42.4
23:05 1013 29.91 843 24.89 14.1 57.4 57 5.8 42.4
23:10 1013 29.91 843 24.89 14.1 57.3 57 5.8 42.4
23:15 1013 29.91 843 24.89 13.9 57.1 60 6.3 43.3
23:20 1013 29.91 843 24.89 13.6 56.4 59 5.9 42.6
23:25 1013 29.91 843 24.89 13.5 56.2 60 5.9 42.6
23:30 1013 29.91 843 24.89 13.4 56.1 62 6.2 43.2
23:35 1013 29.91 842 24.86 13.4 56.1 61 6 42.8
23:40 1013 29.91 843 24.89 13.5 56.3 61 6.1 43
23:45 1013 29.91 842 24.86 13.1 55.7 63 6.3 43.4
23:50 1013 29.91 842 24.86 12.7 54.8 65 6.3 43.4
23:55 1013 29.91 842 24.86 12.2 53.9 65 5.9 42.5
24:00 1013 29.91 843 24.89 12.3 54.1 64 5.6 42.2